createdAt,value
2022-08-28T00:00:02.391Z,3.25
2022-08-28T00:01:08.519Z,3.67
2022-08-28T00:02:10.697Z,2.60
2022-08-28T00:03:14.665Z,3.20
2022-08-28T00:04:18.401Z,3.75
2022-08-28T00:05:22.368Z,3.13
2022-08-28T00:06:24.611Z,3.10
2022-08-28T00:07:26.917Z,2.88
2022-08-28T00:08:30.513Z,3.30
2022-08-28T00:09:32.913Z,3.45
2022-08-28T00:10:35.927Z,2.85
2022-08-28T00:11:39.022Z,3.25
2022-08-28T00:12:41.403Z,3.20
2022-08-28T00:13:45.520Z,2.78
2022-08-28T00:14:47.675Z,3.45
2022-08-28T00:15:55.524Z,3.33
2022-08-28T00:16:57.835Z,2.95
2022-08-28T00:18:01.620Z,3.63
2022-08-28T00:19:05.129Z,3.15
2022-08-28T00:20:10.344Z,2.97
2022-08-28T00:21:13.219Z,3.00
2022-08-28T00:22:15.733Z,3.17
2022-08-28T00:23:18.346Z,3.75
2022-08-28T00:24:20.560Z,2.85
2022-08-28T00:25:26.256Z,2.40
2022-08-28T00:26:47.285Z,3.58
2022-08-28T00:28:54.654Z,3.83
2022-08-28T00:29:56.895Z,2.80
2022-08-28T00:30:59.242Z,2.58
2022-08-28T00:32:01.824Z,2.83
2022-08-28T00:33:08.003Z,3.05
2022-08-28T00:34:13.350Z,3.15
2022-08-28T00:35:17.692Z,3.22
2022-08-28T00:36:19.961Z,2.78
2022-08-28T00:37:24.606Z,3.10
2022-08-28T00:38:28.857Z,2.47
2022-08-28T00:39:32.179Z,3.00
2022-08-28T00:40:35.042Z,3.20
2022-08-28T00:41:41.227Z,2.90
2022-08-28T00:42:43.654Z,2.78
2022-08-28T00:43:47.977Z,3.03
2022-08-28T00:44:50.221Z,2.85
2022-08-28T00:45:53.327Z,2.88
2022-08-28T00:46:58.864Z,2.65
2022-08-28T00:48:01.670Z,2.53
2022-08-28T00:49:04.718Z,4.05
2022-08-28T00:50:10.763Z,3.13
2022-08-28T00:51:34.670Z,2.90
2022-08-28T00:52:38.030Z,3.05
2022-08-28T00:53:40.262Z,2.67
2022-08-28T00:54:58.881Z,3.28
2022-08-28T00:56:10.266Z,3.00
2022-08-28T00:57:21.074Z,3.17
2022-08-28T00:58:29.457Z,2.92
2022-08-28T00:59:31.635Z,2.75
2022-08-28T01:00:37.315Z,3.45
2022-08-28T01:01:39.575Z,2.85
2022-08-28T01:02:42.075Z,3.60
2022-08-28T01:03:45.190Z,2.40
2022-08-28T01:04:48.280Z,2.63
2022-08-28T01:05:50.569Z,2.90
2022-08-28T01:06:57.194Z,2.80
2022-08-28T01:08:00.548Z,2.47
2022-08-28T01:09:04.437Z,3.35
2022-08-28T01:10:14.228Z,2.78
2022-08-28T01:11:18.432Z,2.70
2022-08-28T01:12:29.616Z,2.95
2022-08-28T01:13:33.201Z,3.08
2022-08-28T01:14:39.301Z,2.53
2022-08-28T01:15:42.579Z,2.83
2022-08-28T01:16:45.656Z,2.92
2022-08-28T01:17:52.010Z,2.78
2022-08-28T01:18:55.213Z,3.63
2022-08-28T01:20:02.918Z,2.55
2022-08-28T01:21:20.103Z,2.50
2022-08-28T01:22:37.372Z,2.63
2022-08-28T01:23:54.637Z,2.45
2022-08-28T01:25:00.816Z,2.83
2022-08-28T01:26:03.116Z,2.50
2022-08-28T01:27:13.120Z,2.63
2022-08-28T01:28:15.770Z,2.42
2022-08-28T01:29:18.243Z,2.50
2022-08-28T01:30:22.827Z,2.60
2022-08-28T01:31:26.738Z,2.40
2022-08-28T01:32:35.507Z,2.60
2022-08-28T01:33:42.426Z,3.30
2022-08-28T01:34:44.922Z,2.22
2022-08-28T01:35:48.301Z,2.45
2022-08-28T01:36:50.506Z,2.70
2022-08-28T01:37:55.776Z,3.17
2022-08-28T01:39:04.825Z,2.28
2022-08-28T01:40:09.393Z,2.60
2022-08-28T01:41:14.063Z,2.22
2022-08-28T01:42:16.265Z,2.22
2022-08-28T01:43:21.990Z,2.30
2022-08-28T01:44:26.712Z,2.40
2022-08-28T01:45:29.302Z,2.65
2022-08-28T01:46:31.879Z,2.10
2022-08-28T01:47:34.083Z,2.50
2022-08-28T01:48:40.049Z,2.10
2022-08-28T01:49:42.264Z,2.70
2022-08-28T01:50:45.034Z,2.70
2022-08-28T01:51:47.549Z,2.10
2022-08-28T01:52:50.878Z,2.45
2022-08-28T01:53:53.138Z,2.38
2022-08-28T01:54:55.387Z,1.73
2022-08-28T01:56:02.373Z,2.50
2022-08-28T01:57:06.756Z,2.25
2022-08-28T01:58:10.277Z,2.70
2022-08-28T01:59:14.266Z,2.30
2022-08-28T02:00:17.994Z,2.55
2022-08-28T02:01:21.820Z,2.67
2022-08-28T02:02:24.182Z,2.05
2022-08-28T02:03:26.915Z,2.17
2022-08-28T02:04:32.263Z,2.35
2022-08-28T02:05:35.598Z,2.58
2022-08-28T02:06:38.018Z,2.30
2022-08-28T02:07:40.654Z,4.07
2022-08-28T02:08:42.897Z,2.97
2022-08-28T02:09:45.348Z,2.80
2022-08-28T02:10:47.681Z,2.45
2022-08-28T02:11:49.948Z,2.20
2022-08-28T02:12:53.381Z,1.98
2022-08-28T02:13:56.355Z,2.42
2022-08-28T02:14:58.679Z,2.08
2022-08-28T02:16:00.929Z,2.38
2022-08-28T02:17:03.188Z,2.80
2022-08-28T02:18:06.274Z,2.65
2022-08-28T02:19:09.623Z,2.58
2022-08-28T02:20:11.854Z,2.70
2022-08-28T02:21:14.099Z,2.75
2022-08-28T02:22:16.344Z,2.30
2022-08-28T02:23:18.539Z,2.08
2022-08-28T02:24:20.714Z,2.55
2022-08-28T02:25:23.524Z,2.45
2022-08-28T02:26:26.036Z,2.90
2022-08-28T02:27:28.309Z,2.03
2022-08-28T02:28:31.001Z,2.08
2022-08-28T02:29:33.246Z,2.70
2022-08-28T02:30:36.613Z,2.17
2022-08-28T02:31:38.909Z,2.50
2022-08-28T02:32:41.280Z,2.45
2022-08-28T02:33:45.186Z,2.42
2022-08-28T02:34:47.451Z,2.33
2022-08-28T02:35:49.838Z,2.55
2022-08-28T02:36:52.087Z,2.50
2022-08-28T02:37:54.565Z,2.78
2022-08-28T02:38:58.571Z,2.13
2022-08-28T02:40:01.146Z,2.38
2022-08-28T02:41:04.402Z,2.63
2022-08-28T02:42:07.028Z,3.78
2022-08-28T02:43:09.377Z,2.30
2022-08-28T02:44:11.571Z,2.80
2022-08-28T02:45:15.007Z,2.83
2022-08-28T02:46:17.260Z,2.10
2022-08-28T02:47:19.710Z,1.95
2022-08-28T02:48:21.922Z,2.75
2022-08-28T02:49:24.191Z,2.55
2022-08-28T02:50:26.393Z,3.05
2022-08-28T02:51:33.386Z,2.45
2022-08-28T02:52:37.416Z,2.45
2022-08-28T02:53:41.147Z,1.90
2022-08-28T02:54:43.303Z,3.15
2022-08-28T02:55:45.789Z,2.55
2022-08-28T02:56:48.159Z,2.97
2022-08-28T02:57:50.947Z,2.50
2022-08-28T02:58:53.940Z,2.30
2022-08-28T03:00:01.735Z,2.70
2022-08-28T03:01:07.034Z,2.22
2022-08-28T03:02:10.140Z,2.03
2022-08-28T03:03:12.464Z,2.30
2022-08-28T03:04:14.759Z,3.03
2022-08-28T03:05:21.036Z,2.38
2022-08-28T03:06:23.253Z,2.00
2022-08-28T03:07:25.434Z,2.80
2022-08-28T03:08:28.928Z,2.47
2022-08-28T03:09:31.103Z,1.98
2022-08-28T03:10:33.351Z,2.80
2022-08-28T03:11:36.953Z,3.03
2022-08-28T03:12:39.331Z,2.00
2022-08-28T03:13:42.377Z,2.35
2022-08-28T03:14:44.571Z,2.83
2022-08-28T03:15:47.498Z,1.88
2022-08-28T03:16:54.186Z,2.10
2022-08-28T03:17:56.456Z,1.80
2022-08-28T03:18:58.650Z,2.70
2022-08-28T03:20:00.817Z,2.25
2022-08-28T03:21:03.240Z,2.40
2022-08-28T03:22:05.455Z,2.13
2022-08-28T03:23:26.379Z,1.95
2022-08-28T03:24:28.576Z,2.30
2022-08-28T03:25:31.116Z,2.20
2022-08-28T03:26:34.143Z,1.90
2022-08-28T03:27:38.570Z,2.95
2022-08-28T03:28:44.440Z,2.55
2022-08-28T03:29:46.614Z,2.88
2022-08-28T03:30:49.698Z,2.25
2022-08-28T03:31:52.709Z,2.40
2022-08-28T03:32:54.920Z,2.20
2022-08-28T03:33:57.541Z,2.05
2022-08-28T03:35:00.119Z,2.33
2022-08-28T03:36:04.675Z,2.35
2022-08-28T03:37:07.485Z,2.70
2022-08-28T03:38:11.658Z,2.17
2022-08-28T03:39:14.074Z,1.90
2022-08-28T03:40:16.571Z,2.30
2022-08-28T03:41:21.363Z,2.40
2022-08-28T03:42:23.937Z,2.63
2022-08-28T03:43:27.369Z,2.35
2022-08-28T03:44:29.754Z,2.38
2022-08-28T03:45:31.925Z,2.35
2022-08-28T03:46:34.300Z,1.95
2022-08-28T03:47:41.754Z,2.42
2022-08-28T03:48:46.291Z,2.63
2022-08-28T03:49:55.354Z,2.75
2022-08-28T03:51:00.263Z,1.48
2022-08-28T03:52:02.648Z,1.92
2022-08-28T03:53:04.829Z,1.95
2022-08-28T03:54:06.984Z,2.80
2022-08-28T03:55:11.738Z,2.20
2022-08-28T03:56:18.855Z,2.08
2022-08-28T03:57:22.898Z,2.10
2022-08-28T03:58:25.864Z,2.00
2022-08-28T03:59:33.465Z,2.00
2022-08-28T04:00:35.781Z,2.90
2022-08-28T04:01:38.336Z,1.83
2022-08-28T04:02:42.129Z,2.22
2022-08-28T04:03:45.216Z,2.75
2022-08-28T04:04:49.262Z,2.13
2022-08-28T04:05:51.869Z,2.03
2022-08-28T04:06:54.042Z,2.10
2022-08-28T04:07:56.291Z,2.00
2022-08-28T04:09:00.251Z,2.10
2022-08-28T04:10:04.061Z,1.95
2022-08-28T04:11:06.717Z,2.38
2022-08-28T04:12:09.824Z,2.28
2022-08-28T04:13:14.151Z,1.90
2022-08-28T04:14:16.352Z,2.90
2022-08-28T04:15:18.525Z,2.05
2022-08-28T04:16:21.123Z,2.17
2022-08-28T04:17:23.765Z,2.30
2022-08-28T04:18:27.448Z,2.17
2022-08-28T04:19:30.258Z,1.90
2022-08-28T04:20:32.491Z,1.92
2022-08-28T04:21:34.721Z,2.35
2022-08-28T04:22:37.355Z,2.35
2022-08-28T04:23:43.240Z,2.38
2022-08-28T04:24:45.461Z,1.70
2022-08-28T04:25:47.596Z,2.08
2022-08-28T04:26:49.987Z,1.92
2022-08-28T04:27:52.338Z,2.67
2022-08-28T04:28:55.999Z,1.98
2022-08-28T04:29:59.159Z,2.30
2022-08-28T04:31:02.156Z,2.22
2022-08-28T04:32:04.371Z,2.35
2022-08-28T04:33:06.599Z,2.38
2022-08-28T04:34:10.421Z,2.72
2022-08-28T04:35:13.016Z,1.95
2022-08-28T04:36:18.834Z,2.00
2022-08-28T04:37:21.049Z,2.80
2022-08-28T04:38:26.703Z,2.00
2022-08-28T04:39:28.868Z,2.05
2022-08-28T04:40:31.157Z,2.20
2022-08-28T04:41:33.360Z,2.22
2022-08-28T04:42:35.882Z,1.80
2022-08-28T04:43:38.062Z,2.17
2022-08-28T04:44:40.264Z,2.17
2022-08-28T04:45:44.322Z,2.17
2022-08-28T04:46:47.306Z,2.75
2022-08-28T04:47:50.535Z,2.30
2022-08-28T04:48:53.147Z,1.92
2022-08-28T04:49:55.448Z,2.15
2022-08-28T04:50:58.332Z,1.98
2022-08-28T04:52:00.757Z,2.28
2022-08-28T04:53:03.268Z,2.17
2022-08-28T04:54:05.631Z,1.73
2022-08-28T04:55:08.275Z,2.50
2022-08-28T04:56:13.158Z,2.08
2022-08-28T04:57:15.359Z,2.40
2022-08-28T04:58:19.533Z,2.10
2022-08-28T04:59:27.486Z,2.05
2022-08-28T05:00:29.797Z,2.00
2022-08-28T05:01:32.062Z,2.20
2022-08-28T05:02:35.692Z,2.10
2022-08-28T05:03:39.901Z,2.35
2022-08-28T05:04:42.930Z,2.80
2022-08-28T05:05:48.323Z,2.10
2022-08-28T05:06:50.562Z,2.45
2022-08-28T05:07:52.751Z,2.80
2022-08-28T05:08:57.568Z,1.60
2022-08-28T05:09:59.907Z,1.92
2022-08-28T05:11:33.417Z,2.05
2022-08-28T05:12:36.623Z,2.05
2022-08-28T05:13:40.956Z,2.00
2022-08-28T05:14:43.350Z,2.38
2022-08-28T05:15:48.706Z,1.73
2022-08-28T05:16:53.130Z,2.60
2022-08-28T05:17:55.329Z,2.47
2022-08-28T05:19:01.983Z,2.15
2022-08-28T05:20:05.571Z,2.30
2022-08-28T05:21:20.697Z,2.38
2022-08-28T05:22:23.695Z,2.33
2022-08-28T05:23:25.902Z,1.60
2022-08-28T05:24:28.382Z,2.72
2022-08-28T05:25:32.752Z,3.15
2022-08-28T05:26:36.251Z,2.72
2022-08-28T05:27:42.232Z,1.70
2022-08-28T05:28:44.845Z,1.70
2022-08-28T05:29:50.177Z,2.83
2022-08-28T05:30:52.975Z,2.17
2022-08-28T05:31:55.563Z,2.10
2022-08-28T05:32:59.144Z,1.73
2022-08-28T05:34:02.690Z,2.25
2022-08-28T05:35:05.333Z,1.95
2022-08-28T05:36:08.407Z,2.30
2022-08-28T05:37:10.610Z,1.90
2022-08-28T05:38:15.605Z,1.98
2022-08-28T05:39:17.971Z,2.20
2022-08-28T05:40:22.274Z,2.47
2022-08-28T05:41:30.205Z,2.17
2022-08-28T05:42:37.095Z,1.58
2022-08-28T05:43:41.074Z,2.67
2022-08-28T05:44:43.279Z,2.08
2022-08-28T05:45:45.553Z,3.92
2022-08-28T05:46:48.413Z,1.85
2022-08-28T05:47:51.962Z,2.05
2022-08-28T05:48:55.530Z,2.17
2022-08-28T05:49:58.597Z,1.98
2022-08-28T05:51:12.421Z,1.88
2022-08-28T05:52:15.465Z,2.30
2022-08-28T05:53:18.326Z,2.15
2022-08-28T05:54:20.546Z,2.65
2022-08-28T05:55:22.989Z,2.08
2022-08-28T05:56:30.067Z,2.25
2022-08-28T05:57:32.291Z,2.78
2022-08-28T05:58:37.136Z,2.17
2022-08-28T05:59:39.588Z,2.13
2022-08-28T06:00:41.726Z,1.83
2022-08-28T06:01:47.012Z,2.40
2022-08-28T06:02:50.198Z,2.95
2022-08-28T06:03:59.250Z,1.98
2022-08-28T06:05:02.333Z,2.75
2022-08-28T06:06:05.028Z,2.35
2022-08-28T06:07:08.082Z,2.10
2022-08-28T06:08:10.301Z,3.05
2022-08-28T06:09:29.588Z,2.72
2022-08-28T06:10:32.212Z,2.30
2022-08-28T06:11:34.871Z,2.50
2022-08-28T06:12:37.117Z,2.15
2022-08-28T06:13:39.337Z,2.30
2022-08-28T06:14:41.754Z,1.95
2022-08-28T06:15:45.535Z,3.47
2022-08-28T06:16:52.382Z,2.38
2022-08-28T06:17:54.587Z,2.97
2022-08-28T06:18:57.629Z,2.00
2022-08-28T06:19:59.805Z,1.95
2022-08-28T06:21:02.811Z,2.95
2022-08-28T06:22:07.540Z,2.40
2022-08-28T06:23:12.258Z,2.35
2022-08-28T06:24:14.831Z,1.95
2022-08-28T06:25:17.350Z,2.00
2022-08-28T06:26:19.681Z,2.42
2022-08-28T06:27:22.386Z,1.90
2022-08-28T06:28:27.388Z,2.00
2022-08-28T06:29:30.328Z,3.22
2022-08-28T06:30:32.520Z,1.90
2022-08-28T06:31:34.847Z,2.50
2022-08-28T06:32:37.167Z,2.05
2022-08-28T06:33:39.878Z,1.85
2022-08-28T06:34:42.138Z,1.80
2022-08-28T06:35:47.610Z,2.35
2022-08-28T06:36:53.819Z,2.05
2022-08-28T06:37:57.007Z,2.35
2022-08-28T06:39:00.872Z,2.15
2022-08-28T06:40:03.470Z,2.17
2022-08-28T06:41:11.907Z,1.88
2022-08-28T06:42:14.211Z,2.40
2022-08-28T06:43:18.873Z,2.10
2022-08-28T06:44:21.663Z,1.92
2022-08-28T06:45:23.906Z,3.25
2022-08-28T06:46:27.346Z,2.00
2022-08-28T06:47:29.535Z,2.10
2022-08-28T06:48:31.968Z,1.98
2022-08-28T06:49:34.230Z,1.95
2022-08-28T06:50:41.251Z,2.30
2022-08-28T06:51:43.773Z,2.05
2022-08-28T06:52:45.942Z,2.20
2022-08-28T06:53:48.149Z,2.28
2022-08-28T06:54:55.664Z,2.40
2022-08-28T06:56:06.512Z,2.03
2022-08-28T06:57:09.357Z,3.17
2022-08-28T06:58:12.700Z,2.47
2022-08-28T06:59:14.979Z,2.28
2022-08-28T07:00:17.583Z,2.00
2022-08-28T07:01:24.209Z,1.95
2022-08-28T07:02:28.321Z,2.00
2022-08-28T07:03:31.046Z,2.35
2022-08-28T07:04:33.846Z,2.08
2022-08-28T07:05:36.030Z,2.45
2022-08-28T07:06:41.205Z,2.38
2022-08-28T07:07:43.372Z,2.00
2022-08-28T07:08:45.971Z,1.90
2022-08-28T07:09:48.167Z,1.67
2022-08-28T07:10:50.336Z,1.92
2022-08-28T07:11:52.865Z,1.92
2022-08-28T07:12:55.062Z,2.53
2022-08-28T07:13:57.702Z,2.33
2022-08-28T07:15:00.268Z,2.60
2022-08-28T07:16:03.391Z,2.35
2022-08-28T07:17:07.252Z,1.95
2022-08-28T07:18:09.483Z,1.88
2022-08-28T07:19:13.096Z,2.17
2022-08-28T07:20:15.278Z,1.83
2022-08-28T07:21:17.745Z,2.30
2022-08-28T07:22:20.161Z,2.13
2022-08-28T07:23:22.532Z,2.00
2022-08-28T07:24:25.734Z,1.83
2022-08-28T07:25:27.984Z,2.83
2022-08-28T07:26:30.232Z,1.90
2022-08-28T07:27:34.984Z,1.90
2022-08-28T07:28:37.699Z,2.20
2022-08-28T07:29:39.920Z,1.83
2022-08-28T07:30:42.730Z,1.58
2022-08-28T07:31:53.402Z,1.77
2022-08-28T07:33:59.107Z,1.50
2022-08-28T07:35:01.306Z,1.80
2022-08-28T07:36:07.584Z,1.58
2022-08-28T07:37:14.680Z,2.05
2022-08-28T07:38:17.637Z,1.77
2022-08-28T07:39:22.961Z,2.08
2022-08-28T07:40:25.296Z,2.35
2022-08-28T07:41:30.588Z,1.80
2022-08-28T07:42:51.315Z,1.90
2022-08-28T07:45:14.189Z,1.48
2022-08-28T07:46:16.388Z,1.77
2022-08-28T07:47:18.726Z,1.80
2022-08-28T07:48:21.353Z,2.55
2022-08-28T07:49:24.381Z,1.50
2022-08-28T07:50:26.551Z,1.60
2022-08-28T07:51:28.938Z,1.80
2022-08-28T07:52:31.173Z,2.58
2022-08-28T07:53:36.519Z,1.80
2022-08-28T07:54:40.488Z,2.08
2022-08-28T07:55:43.216Z,1.95
2022-08-28T07:56:46.495Z,1.95
2022-08-28T07:57:49.968Z,2.17
2022-08-28T07:58:53.788Z,1.67
2022-08-28T07:59:55.939Z,1.20
2022-08-28T08:00:58.253Z,1.90
2022-08-28T08:02:00.841Z,2.25
2022-08-28T08:03:03.472Z,1.50
2022-08-28T08:04:13.010Z,2.45
2022-08-28T08:05:15.818Z,2.05
2022-08-28T08:06:18.659Z,1.63
2022-08-28T08:07:20.902Z,2.22
2022-08-28T08:08:23.442Z,2.15
2022-08-28T08:09:25.810Z,1.63
2022-08-28T08:10:27.975Z,2.42
2022-08-28T08:11:36.739Z,2.30
2022-08-28T08:12:38.957Z,1.85
2022-08-28T08:13:41.222Z,1.70
2022-08-28T08:14:46.635Z,1.88
2022-08-28T08:15:51.229Z,1.60
2022-08-28T08:16:53.655Z,2.47
2022-08-28T08:17:56.363Z,1.92
2022-08-28T08:18:58.646Z,1.60
2022-08-28T08:20:03.964Z,1.48
2022-08-28T08:21:08.601Z,2.00
2022-08-28T08:22:10.830Z,1.60
2022-08-28T08:23:13.385Z,2.05
2022-08-28T08:24:20.771Z,1.80
2022-08-28T08:25:23.105Z,1.98
2022-08-28T08:26:28.244Z,1.73
2022-08-28T08:27:38.805Z,1.88
2022-08-28T08:28:43.769Z,2.97
2022-08-28T08:29:45.977Z,1.67
2022-08-28T08:30:48.212Z,1.65
2022-08-28T08:31:59.090Z,1.92
2022-08-28T08:33:01.294Z,1.70
2022-08-28T08:34:05.010Z,2.03
2022-08-28T08:35:07.565Z,2.08
2022-08-28T08:36:12.204Z,2.58
2022-08-28T08:37:15.360Z,2.00
2022-08-28T08:38:17.511Z,2.10
2022-08-28T08:39:19.919Z,2.10
2022-08-28T08:40:22.447Z,2.45
2022-08-28T08:41:27.751Z,2.75
2022-08-28T08:42:33.256Z,1.70
2022-08-28T08:43:49.069Z,1.80
2022-08-28T08:44:53.698Z,1.90
2022-08-28T08:45:56.047Z,1.98
2022-08-28T08:47:14.140Z,2.13
2022-08-28T08:48:28.640Z,1.80
2022-08-28T08:49:35.935Z,2.00
2022-08-28T08:50:38.325Z,1.88
2022-08-28T08:51:50.437Z,1.73
2022-08-28T08:53:17.295Z,1.58
2022-08-28T08:54:21.176Z,1.73
2022-08-28T08:55:25.317Z,2.20
2022-08-28T08:56:34.498Z,1.70
2022-08-28T08:57:39.014Z,2.47
2022-08-28T08:58:45.751Z,2.03
2022-08-28T08:59:48.010Z,1.83
2022-08-28T09:01:09.456Z,1.88
2022-08-28T09:02:31.500Z,1.98
2022-08-28T09:03:53.025Z,1.90
2022-08-28T09:05:05.413Z,2.50
2022-08-28T09:06:18.165Z,1.55
2022-08-28T09:07:35.584Z,2.08
2022-08-28T09:08:44.450Z,2.15
2022-08-28T09:09:58.173Z,1.92
2022-08-28T09:11:22.547Z,2.00
2022-08-28T09:12:28.070Z,1.55
2022-08-28T09:13:48.794Z,2.10
2022-08-28T09:14:51.114Z,1.70
2022-08-28T09:15:53.505Z,1.80
2022-08-28T09:16:57.574Z,1.50
2022-08-28T09:18:15.103Z,1.90
2022-08-28T09:19:21.089Z,1.58
2022-08-28T09:20:32.665Z,2.22
2022-08-28T09:21:41.441Z,1.98
2022-08-28T09:22:48.056Z,2.03
2022-08-28T09:23:53.416Z,1.90
2022-08-28T09:24:55.730Z,1.73
2022-08-28T09:26:01.809Z,1.85
2022-08-28T09:27:22.405Z,1.42
2022-08-28T09:28:29.848Z,1.67
2022-08-28T09:29:39.887Z,1.77
2022-08-28T09:30:43.841Z,2.10
2022-08-28T09:31:46.041Z,2.03
2022-08-28T09:33:00.895Z,1.80
2022-08-28T09:34:30.013Z,1.92
2022-08-28T09:35:34.748Z,1.73
2022-08-28T09:36:38.778Z,1.67
2022-08-28T09:37:42.696Z,1.90
2022-08-28T09:38:44.882Z,1.83
2022-08-28T09:39:48.963Z,1.42
2022-08-28T09:41:27.671Z,1.88
2022-08-28T09:42:49.409Z,1.77
2022-08-28T09:43:51.989Z,1.70
2022-08-28T09:45:00.003Z,1.60
2022-08-28T09:46:24.106Z,1.77
2022-08-28T09:47:46.382Z,1.77
2022-08-28T09:48:52.407Z,1.63
2022-08-28T09:49:54.566Z,1.98
2022-08-28T09:51:04.733Z,1.70
2022-08-28T09:52:25.010Z,1.35
2022-08-28T09:53:29.138Z,1.45
2022-08-28T09:54:36.486Z,1.40
2022-08-28T09:56:11.124Z,1.52
2022-08-28T09:57:13.329Z,1.90
2022-08-28T09:58:15.840Z,1.60
2022-08-28T09:59:20.578Z,2.03
2022-08-28T10:00:23.035Z,1.90
2022-08-28T10:01:44.559Z,2.10
2022-08-28T10:03:07.761Z,1.70
2022-08-28T10:04:16.652Z,1.55
2022-08-28T10:05:38.890Z,1.58
2022-08-28T10:06:44.216Z,1.35
2022-08-28T10:07:51.482Z,1.80
2022-08-28T10:09:04.262Z,1.50
2022-08-28T10:10:25.682Z,1.52
2022-08-28T10:11:44.285Z,1.50
2022-08-28T10:13:14.116Z,1.60
2022-08-28T10:14:48.895Z,1.88
2022-08-28T10:16:23.241Z,1.65
2022-08-28T10:17:39.660Z,1.63
2022-08-28T10:19:03.966Z,1.48
2022-08-28T10:20:21.224Z,1.92
2022-08-28T10:21:41.665Z,1.77
2022-08-28T10:23:17.612Z,1.70
2022-08-28T10:24:26.802Z,1.80
2022-08-28T10:25:53.601Z,1.27
2022-08-28T10:26:56.415Z,1.92
2022-08-28T10:28:29.868Z,1.60
2022-08-28T10:30:02.685Z,1.70
2022-08-28T10:31:27.391Z,1.92
2022-08-28T10:32:45.548Z,1.80
2022-08-28T10:34:25.860Z,1.60
2022-08-28T10:35:52.805Z,2.17
2022-08-28T10:37:13.613Z,1.88
2022-08-28T10:38:19.889Z,1.60
2022-08-28T10:39:48.065Z,1.40
2022-08-28T10:41:06.153Z,1.65
2022-08-28T10:42:10.022Z,2.10
2022-08-28T10:43:30.686Z,1.80
2022-08-28T10:45:05.350Z,2.47
2022-08-28T10:46:14.889Z,2.00
2022-08-28T10:47:19.843Z,1.50
2022-08-28T10:48:33.724Z,1.60
2022-08-28T10:49:46.969Z,2.60
2022-08-28T10:51:35.318Z,1.80
2022-08-28T10:53:01.987Z,1.95
2022-08-28T10:54:23.262Z,2.38
2022-08-28T10:55:34.531Z,2.53
2022-08-28T10:56:56.151Z,2.03
2022-08-28T10:58:24.977Z,2.63
2022-08-28T10:59:30.573Z,1.75
2022-08-28T11:00:34.728Z,1.70
2022-08-28T11:01:40.479Z,2.10
2022-08-28T11:02:48.188Z,1.85
2022-08-28T11:03:51.842Z,1.90
2022-08-28T11:04:58.466Z,2.38
2022-08-28T11:06:12.882Z,1.85
2022-08-28T11:07:27.882Z,1.90
2022-08-28T11:08:33.334Z,2.60
2022-08-28T11:09:47.369Z,2.30
2022-08-28T11:10:51.971Z,2.00
2022-08-28T11:12:02.272Z,2.40
2022-08-28T11:13:07.225Z,2.10
2022-08-28T11:14:10.569Z,2.25
2022-08-28T11:15:40.858Z,1.90
2022-08-28T11:16:46.763Z,2.00
2022-08-28T11:17:50.244Z,2.05
2022-08-28T11:19:29.933Z,2.20
2022-08-28T11:20:32.306Z,2.10
2022-08-28T11:21:54.723Z,2.10
2022-08-28T11:23:18.949Z,2.40
2022-08-28T11:24:43.596Z,2.00
2022-08-28T11:25:57.495Z,2.25
2022-08-28T11:27:06.075Z,2.08
2022-08-28T11:28:25.412Z,2.30
2022-08-28T11:30:11.635Z,2.22
2022-08-28T11:31:18.980Z,2.83
2022-08-28T11:32:30.993Z,2.55
2022-08-28T11:33:36.272Z,2.28
2022-08-28T11:35:12.334Z,2.28
2022-08-28T11:36:20.345Z,2.50
2022-08-28T11:37:45.404Z,2.35
2022-08-28T11:38:57.460Z,2.08
2022-08-28T11:40:18.527Z,2.13
2022-08-28T11:41:27.321Z,1.98
2022-08-28T11:42:35.809Z,2.42
2022-08-28T11:43:40.870Z,1.98
2022-08-28T11:44:45.003Z,2.47
2022-08-28T11:45:47.325Z,2.22
2022-08-28T11:46:52.246Z,2.50
2022-08-28T11:47:56.805Z,2.08
2022-08-28T11:49:01.755Z,2.28
2022-08-28T11:50:27.212Z,4.03
2022-08-28T11:51:51.103Z,2.38
2022-08-28T11:53:23.858Z,2.25
2022-08-28T11:54:56.785Z,2.35
2022-08-28T11:56:30.584Z,2.13
2022-08-28T11:59:47.223Z,1.98
2022-08-28T12:01:01.503Z,2.22
2022-08-28T12:02:40.911Z,2.00
2022-08-28T12:03:55.088Z,2.10
2022-08-28T12:04:57.463Z,2.38
2022-08-28T12:06:00.936Z,2.17
2022-08-28T12:07:20.848Z,2.47
2022-08-28T12:08:44.595Z,1.90
2022-08-28T12:09:48.782Z,2.15
2022-08-28T12:10:53.844Z,2.10
2022-08-28T12:11:59.538Z,2.35
2022-08-28T12:13:03.833Z,2.58
2022-08-28T12:14:28.662Z,2.22
2022-08-28T12:15:31.219Z,2.15
2022-08-28T12:17:00.972Z,2.30
2022-08-28T12:18:07.045Z,1.90
2022-08-28T12:19:10.148Z,2.60
2022-08-28T12:20:22.667Z,2.00
2022-08-28T12:21:27.939Z,1.95
2022-08-28T12:22:46.557Z,2.20
2022-08-28T12:24:09.009Z,2.20
2022-08-28T12:25:39.382Z,2.70
2022-08-28T12:26:47.190Z,2.05
2022-08-28T12:27:49.780Z,1.88
2022-08-28T12:29:00.088Z,2.40
2022-08-28T12:30:02.676Z,2.58
2022-08-28T12:31:04.823Z,2.55
2022-08-28T12:32:24.672Z,2.15
2022-08-28T12:33:38.647Z,2.20
2022-08-28T12:34:50.179Z,2.60
2022-08-28T12:35:52.504Z,2.53
2022-08-28T12:37:00.758Z,2.42
2022-08-28T12:38:06.355Z,2.47
2022-08-28T12:39:16.420Z,2.90
2022-08-28T12:40:32.268Z,2.90
2022-08-28T12:41:35.838Z,2.80
2022-08-28T12:42:51.986Z,2.45
2022-08-28T12:43:59.759Z,2.72
2022-08-28T12:45:09.556Z,3.22
2022-08-28T12:46:19.683Z,3.15
2022-08-28T12:47:23.671Z,3.20
2022-08-28T12:48:32.583Z,3.50
2022-08-28T12:49:37.819Z,3.03
2022-08-28T12:50:40.886Z,2.45
2022-08-28T12:51:43.048Z,3.08
2022-08-28T12:52:52.128Z,2.83
2022-08-28T12:54:00.258Z,2.47
2022-08-28T12:55:02.427Z,2.53
2022-08-28T12:56:05.010Z,2.53
2022-08-28T12:57:11.572Z,3.08
2022-08-28T12:58:32.893Z,2.80
2022-08-28T12:59:38.913Z,3.78
2022-08-28T13:00:58.555Z,3.33
2022-08-28T13:02:09.512Z,2.65
2022-08-28T13:03:11.970Z,2.60
2022-08-28T13:04:34.822Z,2.70
2022-08-28T13:05:41.355Z,2.90
2022-08-28T13:06:43.783Z,2.75
2022-08-28T13:07:51.904Z,3.08
2022-08-28T13:09:04.436Z,2.92
2022-08-28T13:10:32.128Z,2.70
2022-08-28T13:11:38.588Z,2.63
2022-08-28T13:12:54.680Z,2.70
2022-08-28T13:13:58.118Z,2.72
2022-08-28T13:15:01.197Z,2.88
2022-08-28T13:16:09.667Z,2.63
2022-08-28T13:17:14.674Z,2.72
2022-08-28T13:18:35.802Z,2.58
2022-08-28T13:19:38.580Z,2.67
2022-08-28T13:20:40.850Z,3.47
2022-08-28T13:21:51.850Z,2.90
2022-08-28T13:22:54.585Z,3.13
2022-08-28T13:23:58.990Z,3.22
2022-08-28T13:25:03.857Z,3.08
2022-08-28T13:26:07.371Z,3.20
2022-08-28T13:27:12.379Z,3.10
2022-08-28T13:28:18.834Z,3.03
2022-08-28T13:29:24.244Z,3.60
2022-08-28T13:30:33.684Z,2.95
2022-08-28T13:31:38.786Z,3.03
2022-08-28T13:32:41.202Z,3.53
2022-08-28T13:33:43.747Z,3.20
2022-08-28T13:35:16.854Z,3.40
2022-08-28T13:36:21.705Z,3.78
2022-08-28T13:37:50.954Z,3.58
2022-08-28T13:38:53.137Z,3.30
2022-08-28T13:39:55.367Z,3.65
2022-08-28T13:41:02.425Z,3.72
2022-08-28T13:42:13.673Z,3.45
2022-08-28T13:43:17.456Z,3.63
2022-08-28T13:44:32.146Z,3.42
2022-08-28T13:45:42.561Z,3.40
2022-08-28T13:46:45.855Z,3.38
2022-08-28T13:47:48.070Z,3.70
2022-08-28T13:48:50.218Z,3.80
2022-08-28T13:49:52.423Z,3.90
2022-08-28T13:51:10.735Z,4.13
2022-08-28T13:52:13.563Z,3.70
2022-08-28T13:53:18.808Z,3.75
2022-08-28T13:54:20.957Z,4.53
2022-08-28T13:55:23.620Z,4.25
2022-08-28T13:56:27.526Z,4.32
2022-08-28T13:57:29.980Z,3.72
2022-08-28T13:58:33.355Z,4.95
2022-08-28T13:59:35.561Z,4.43
2022-08-28T14:00:43.394Z,4.70
2022-08-28T14:02:05.577Z,4.10
2022-08-28T14:03:26.582Z,4.50
2022-08-28T14:04:29.041Z,3.70
2022-08-28T14:05:32.011Z,4.15
2022-08-28T14:06:34.202Z,4.15
2022-08-28T14:07:37.002Z,3.80
2022-08-28T14:08:41.094Z,3.97
2022-08-28T14:09:43.329Z,4.45
2022-08-28T14:10:46.513Z,4.10
2022-08-28T14:11:49.682Z,3.85
2022-08-28T14:12:51.969Z,4.53
2022-08-28T14:13:55.377Z,4.70
2022-08-28T14:14:58.091Z,4.43
2022-08-28T14:16:07.024Z,4.53
2022-08-28T14:17:09.991Z,5.15
2022-08-28T14:18:12.205Z,4.45
2022-08-28T14:19:14.457Z,4.53
2022-08-28T14:20:16.677Z,4.57
2022-08-28T14:21:19.667Z,4.43
2022-08-28T14:22:21.823Z,4.30
2022-08-28T14:23:24.212Z,4.45
2022-08-28T14:24:27.241Z,4.28
2022-08-28T14:25:29.627Z,4.68
2022-08-28T14:26:32.396Z,4.78
2022-08-28T14:27:34.571Z,5.15
2022-08-28T14:28:36.859Z,4.85
2022-08-28T14:29:39.081Z,5.70
2022-08-28T14:30:50.370Z,4.63
2022-08-28T14:31:52.788Z,5.00
2022-08-28T14:32:54.999Z,4.72
2022-08-28T14:33:58.027Z,5.32
2022-08-28T14:35:00.299Z,4.18
2022-08-28T14:36:02.911Z,5.13
2022-08-28T14:37:06.300Z,4.45
2022-08-28T14:38:09.606Z,4.68
2022-08-28T14:39:13.163Z,5.00
2022-08-28T14:40:15.650Z,4.30
2022-08-28T14:41:18.186Z,4.28
2022-08-28T14:42:20.498Z,4.45
2022-08-28T14:43:22.730Z,4.20
2022-08-28T14:44:26.533Z,3.15
2022-08-28T14:45:28.798Z,3.97
2022-08-28T14:46:34.044Z,4.10
2022-08-28T14:47:39.160Z,4.10
2022-08-28T14:48:41.385Z,4.03
2022-08-28T14:49:43.713Z,4.28
2022-08-28T14:50:48.136Z,4.30
2022-08-28T14:51:50.937Z,4.10
2022-08-28T14:52:53.118Z,3.75